createdAt,value
2022-08-21T07:52:25.882Z,20.52
2022-08-21T07:55:00.751Z,20.62
2022-08-21T07:57:29.966Z,20.79
2022-08-21T07:59:56.461Z,20.81
2022-08-21T08:02:27.580Z,20.98
2022-08-21T08:04:54.282Z,21.14
2022-08-21T08:07:20.805Z,21.20
2022-08-21T08:09:47.298Z,21.35
2022-08-21T08:12:13.852Z,21.32
2022-08-21T08:14:40.444Z,21.33
2022-08-21T08:17:07.005Z,21.35
2022-08-21T08:19:33.557Z,21.35
2022-08-21T08:22:00.085Z,21.46
2022-08-21T08:24:26.678Z,21.46
2022-08-21T08:26:54.963Z,21.67
2022-08-21T08:29:23.045Z,21.60
2022-08-21T08:31:49.564Z,21.73
2022-08-21T08:34:25.148Z,21.81
2022-08-21T08:36:52.459Z,21.85
2022-08-21T08:39:27.002Z,22.10
2022-08-21T08:42:32.336Z,22.05
2022-08-21T08:45:01.491Z,22.04
2022-08-21T08:47:29.932Z,22.06
2022-08-21T08:50:03.512Z,22.01
2022-08-21T08:52:37.574Z,22.00
2022-08-21T08:55:16.148Z,22.22
2022-08-21T08:57:50.253Z,22.22
2022-08-21T09:00:21.577Z,22.31
2022-08-21T09:02:49.378Z,22.57
2022-08-21T09:05:59.239Z,22.39
2022-08-21T09:08:51.163Z,22.41
2022-08-21T09:11:55.692Z,22.53
2022-08-21T09:14:44.691Z,22.74
2022-08-21T09:17:35.364Z,22.78
2022-08-21T09:20:07.967Z,22.76
2022-08-21T09:22:37.394Z,22.83
2022-08-21T09:25:13.233Z,23.12
2022-08-21T09:27:40.734Z,23.18
2022-08-21T09:30:08.439Z,23.11
2022-08-21T09:32:38.178Z,23.17
2022-08-21T09:35:23.428Z,23.25
2022-08-21T09:37:54.981Z,23.09
2022-08-21T09:40:36.781Z,22.99
2022-08-21T09:43:12.526Z,23.22
2022-08-21T09:45:40.713Z,23.44
2022-08-21T09:48:26.230Z,23.67
2022-08-21T09:50:54.718Z,23.48
2022-08-21T09:53:25.642Z,23.45
2022-08-21T09:56:13.014Z,23.59
2022-08-21T09:58:43.613Z,23.70
2022-08-21T10:01:15.898Z,23.76
2022-08-21T10:03:42.548Z,23.88
2022-08-21T10:06:11.705Z,24.07
2022-08-21T10:08:40.316Z,24.14
2022-08-21T10:11:16.080Z,24.22
2022-08-21T10:14:08.343Z,24.49
2022-08-21T10:17:02.665Z,24.61
2022-08-21T10:19:44.814Z,24.51
2022-08-21T10:22:36.232Z,24.52
2022-08-21T10:25:18.766Z,24.53
2022-08-21T10:27:45.194Z,24.61
2022-08-21T10:30:17.358Z,24.77
2022-08-21T10:33:12.587Z,24.93
2022-08-21T10:36:00.506Z,24.71
2022-08-21T10:38:58.746Z,25.03
2022-08-21T10:41:45.757Z,25.24
2022-08-21T10:44:30.429Z,25.35
2022-08-21T10:47:14.170Z,25.17
2022-08-21T10:49:43.304Z,25.35
2022-08-21T10:52:22.013Z,25.73
2022-08-21T10:55:07.565Z,25.46
2022-08-21T10:57:48.916Z,25.48
2022-08-21T11:00:22.870Z,25.40
2022-08-21T11:03:01.095Z,25.60
2022-08-21T11:05:43.425Z,25.92
2022-08-21T11:08:19.704Z,26.14
2022-08-21T11:11:08.693Z,26.14
2022-08-21T11:13:46.496Z,25.90
2022-08-21T11:16:40.686Z,25.77
2022-08-21T11:19:37.690Z,25.70
2022-08-21T11:22:29.312Z,25.93
2022-08-21T11:25:08.164Z,26.21
2022-08-21T11:27:46.734Z,25.91
2022-08-21T11:30:15.276Z,26.17
2022-08-21T11:32:47.512Z,26.04
2022-08-21T11:35:40.586Z,26.24
2022-08-21T11:38:23.012Z,26.35
2022-08-21T11:41:00.384Z,26.36
2022-08-21T11:43:36.714Z,26.49
2022-08-21T11:46:40.637Z,26.13
2022-08-21T11:49:40.885Z,26.54
2022-08-21T11:52:24.410Z,26.44
2022-08-21T11:55:00.837Z,26.70
2022-08-21T11:57:32.270Z,26.81
2022-08-21T12:00:17.544Z,26.80
2022-08-21T12:02:49.014Z,26.78
2022-08-21T12:05:55.572Z,27.16
2022-08-21T12:08:33.947Z,27.30
2022-08-21T12:11:11.555Z,27.62
2022-08-21T12:13:42.625Z,27.84
2022-08-21T12:16:40.141Z,27.83
2022-08-21T12:19:10.826Z,27.97
2022-08-21T12:21:49.509Z,27.98
2022-08-21T12:24:16.100Z,28.34
2022-08-21T12:26:53.643Z,28.07
2022-08-21T12:29:25.148Z,28.03
2022-08-21T12:31:58.581Z,28.48
2022-08-21T12:34:32.671Z,29.14
2022-08-21T12:37:22.469Z,28.97
2022-08-21T12:39:53.700Z,29.00
2022-08-21T12:42:38.532Z,28.63
2022-08-21T12:45:18.353Z,28.53
2022-08-21T12:47:49.196Z,29.23
2022-08-21T12:50:24.362Z,30.11
2022-08-21T12:53:18.413Z,30.36
2022-08-21T12:55:47.620Z,31.32
2022-08-21T12:58:22.064Z,31.61
2022-08-21T13:00:55.612Z,31.71
2022-08-21T13:03:23.375Z,30.79
2022-08-21T13:05:52.807Z,30.34
2022-08-21T13:08:21.947Z,30.58
2022-08-21T13:10:57.321Z,30.50
2022-08-21T13:13:28.424Z,30.68
2022-08-21T13:16:05.675Z,30.33
2022-08-21T13:18:36.084Z,30.79
2022-08-21T13:21:13.784Z,30.68
2022-08-21T13:23:41.063Z,30.55
2022-08-21T13:26:18.621Z,30.79
2022-08-21T13:28:48.343Z,31.00
2022-08-21T13:31:22.063Z,31.69
2022-08-21T13:33:50.258Z,31.85
2022-08-21T13:36:27.061Z,32.26
2022-08-21T13:38:55.295Z,31.62
2022-08-21T13:41:34.979Z,31.87
2022-08-21T13:44:19.991Z,32.22
2022-08-21T13:46:48.930Z,30.77
2022-08-21T13:49:19.502Z,29.95
2022-08-21T13:51:47.616Z,30.20
2022-08-21T13:54:24.333Z,29.90
2022-08-21T13:56:51.635Z,29.80
2022-08-21T13:59:26.639Z,29.83
2022-08-21T14:01:59.985Z,29.98
2022-08-21T14:04:44.060Z,30.06
2022-08-21T14:07:30.389Z,29.92
2022-08-21T14:09:57.009Z,30.56
2022-08-21T14:12:43.084Z,31.22
2022-08-21T14:15:11.004Z,31.75
2022-08-21T14:17:40.380Z,31.08
2022-08-21T14:20:08.670Z,30.16
2022-08-21T14:22:42.633Z,30.08
2022-08-21T14:25:14.657Z,29.77
2022-08-21T14:28:09.601Z,29.45
2022-08-21T14:30:39.475Z,29.17
2022-08-21T14:33:13.641Z,28.72
2022-08-21T14:35:40.775Z,28.56
2022-08-21T14:38:17.608Z,28.37
2022-08-21T14:40:47.767Z,28.47
2022-08-21T14:43:14.319Z,28.54
2022-08-21T14:45:41.691Z,28.53
2022-08-21T14:48:09.263Z,28.59
2022-08-21T14:50:36.253Z,28.49
2022-08-21T14:53:04.969Z,28.48
2022-08-21T14:55:58.031Z,28.38
2022-08-21T14:58:25.487Z,28.42
2022-08-21T15:00:57.256Z,28.49
2022-08-21T15:03:23.820Z,28.36
2022-08-21T15:05:50.867Z,28.41
2022-08-21T15:08:18.217Z,28.58
2022-08-21T15:11:10.038Z,28.87
2022-08-21T15:13:32.870Z,29.23
2022-08-21T15:15:59.800Z,29.43
2022-08-21T15:18:28.167Z,29.62
2022-08-21T15:20:54.911Z,29.58
2022-08-21T15:23:21.721Z,29.92
2022-08-21T15:25:49.726Z,30.13
2022-08-21T15:52:14.514Z,28.80
2022-08-21T15:54:41.488Z,28.86
2022-08-21T15:57:10.826Z,28.65
2022-08-21T15:59:44.288Z,28.42
2022-08-21T16:02:23.822Z,27.84
2022-08-21T16:04:50.393Z,27.69
2022-08-21T16:07:17.053Z,27.48
2022-08-21T16:09:44.041Z,27.58
2022-08-21T16:12:22.639Z,27.60
2022-08-21T16:14:50.733Z,27.73
2022-08-21T16:17:17.270Z,27.52
2022-08-21T16:19:43.940Z,27.56
2022-08-21T16:22:10.556Z,27.65
2022-08-21T16:24:37.094Z,27.62
2022-08-21T16:27:08.150Z,27.65
2022-08-21T16:29:37.130Z,27.72
2022-08-21T16:32:05.166Z,27.88
2022-08-21T16:34:32.006Z,27.72
2022-08-21T16:36:58.574Z,27.83
2022-08-21T16:39:25.498Z,27.90
2022-08-21T16:41:52.262Z,27.83
2022-08-21T16:44:21.536Z,27.93
2022-08-21T16:46:48.220Z,27.93
2022-08-21T16:49:14.798Z,27.93
2022-08-21T16:51:41.625Z,27.96
2022-08-21T16:54:08.157Z,27.72
2022-08-21T16:56:38.430Z,27.56
2022-08-21T16:59:06.736Z,27.56
2022-08-21T17:01:35.381Z,27.48
2022-08-21T17:04:03.377Z,27.50
2022-08-21T17:06:31.176Z,27.58
2022-08-21T17:08:58.713Z,27.53
2022-08-21T17:11:37.073Z,27.50
2022-08-21T17:14:12.237Z,27.39
2022-08-21T17:16:41.058Z,27.19
2022-08-21T17:19:08.327Z,27.17
2022-08-21T17:21:35.194Z,27.12
2022-08-21T17:24:01.710Z,27.08
2022-08-21T17:26:28.323Z,27.12
2022-08-21T17:28:55.226Z,27.07
2022-08-21T17:31:22.327Z,27.04
2022-08-21T17:33:52.945Z,27.01
2022-08-21T17:36:21.902Z,26.93
2022-08-21T17:38:48.601Z,26.80
2022-08-21T17:41:16.176Z,26.70
2022-08-21T17:43:43.207Z,26.59
2022-08-21T17:46:22.677Z,26.49
2022-08-21T17:48:49.274Z,26.43
2022-08-21T17:51:16.980Z,26.34
2022-08-21T17:53:44.996Z,26.24
2022-08-21T17:56:14.061Z,26.15
2022-08-21T17:58:43.053Z,26.04
2022-08-21T18:01:11.152Z,25.94
2022-08-21T18:03:38.218Z,25.86
2022-08-21T18:06:05.883Z,25.80
2022-08-21T18:08:33.209Z,25.72
2022-08-21T18:11:00.882Z,25.53
2022-08-21T18:13:34.155Z,25.42
2022-08-21T18:16:01.285Z,25.29
2022-08-21T18:18:36.826Z,25.20
2022-08-21T18:21:03.542Z,25.08
2022-08-21T18:23:37.561Z,24.97
2022-08-21T18:26:13.405Z,24.88
2022-08-21T18:28:40.810Z,24.79
2022-08-21T18:31:10.643Z,24.74
2022-08-21T18:33:38.390Z,24.60
2022-08-21T18:36:05.946Z,24.52
2022-08-21T18:38:33.075Z,24.37
2022-08-21T18:40:59.811Z,24.25
2022-08-21T18:43:26.995Z,24.11
2022-08-21T18:45:54.126Z,24.00
2022-08-21T18:48:20.919Z,23.96
2022-08-21T18:50:53.846Z,23.89
2022-08-21T18:53:27.487Z,23.89
2022-08-21T18:55:57.007Z,23.85
2022-08-21T18:58:25.562Z,23.81
2022-08-21T19:00:52.697Z,23.73
2022-08-21T19:03:23.865Z,23.68
2022-08-21T19:05:52.619Z,23.63
2022-08-21T19:08:22.755Z,23.49
2022-08-21T19:10:51.412Z,23.37
2022-08-21T19:13:20.685Z,23.26
2022-08-21T19:15:52.722Z,23.19
2022-08-21T19:18:28.403Z,23.15
2022-08-21T19:20:56.074Z,23.13
2022-08-21T19:23:29.231Z,23.10
2022-08-21T19:26:00.884Z,23.09
2022-08-21T19:28:29.707Z,23.02
2022-08-21T19:31:12.617Z,22.95
2022-08-21T19:33:47.412Z,22.88
2022-08-21T19:36:18.018Z,22.84
2022-08-21T19:38:45.975Z,22.82
2022-08-21T19:41:15.596Z,22.81
2022-08-21T19:43:49.842Z,22.85
2022-08-21T19:46:24.474Z,22.83
2022-08-21T19:48:52.724Z,22.83
2022-08-21T19:51:19.310Z,22.79
2022-08-21T19:53:45.835Z,22.67
2022-08-21T19:56:18.004Z,22.59
2022-08-21T19:58:47.470Z,22.56
2022-08-21T20:01:18.502Z,22.48
2022-08-21T20:03:53.758Z,22.40
2022-08-21T20:06:20.894Z,22.29
2022-08-21T20:08:48.245Z,22.19
2022-08-21T20:11:26.113Z,22.08
2022-08-21T20:13:53.608Z,22.04
2022-08-21T20:16:21.513Z,22.04
2022-08-21T20:18:48.859Z,22.06
2022-08-21T20:21:16.141Z,22.05
2022-08-21T20:23:48.820Z,21.88
2022-08-21T20:26:16.676Z,21.88
2022-08-21T20:28:44.087Z,21.83
2022-08-21T20:31:11.055Z,21.86
2022-08-21T20:33:41.823Z,21.86
2022-08-21T20:36:09.425Z,21.93
2022-08-21T20:38:36.603Z,21.96
2022-08-21T20:41:04.137Z,21.99
2022-08-21T20:43:32.469Z,22.06
2022-08-21T20:46:00.742Z,22.08
2022-08-21T20:48:49.251Z,22.08
2022-08-21T20:51:31.755Z,22.10
2022-08-21T20:54:04.978Z,22.11
2022-08-21T20:56:48.214Z,22.09
2022-08-21T20:59:30.006Z,22.14
2022-08-21T21:02:20.915Z,22.00
2022-08-21T21:04:55.604Z,21.99
2022-08-21T21:07:31.317Z,21.97
2022-08-21T21:10:02.102Z,21.91
2022-08-21T21:12:35.193Z,21.87
2022-08-21T21:15:10.265Z,21.85
2022-08-21T21:17:45.826Z,21.88
2022-08-21T21:20:40.380Z,21.89
2022-08-21T21:23:27.014Z,21.88
2022-08-21T21:26:06.558Z,21.88
2022-08-21T21:28:48.349Z,21.87
2022-08-21T21:31:15.183Z,21.90
2022-08-21T21:33:42.677Z,21.91
2022-08-21T21:36:28.217Z,21.92
2022-08-21T21:39:10.459Z,21.90
2022-08-21T21:42:04.570Z,21.85
2022-08-21T21:44:50.146Z,21.73
2022-08-21T21:47:35.360Z,21.58
2022-08-21T21:50:42.554Z,21.49
2022-08-21T21:53:36.854Z,21.46
2022-08-21T21:56:22.982Z,21.45
2022-08-21T21:59:08.407Z,21.43
2022-08-21T22:04:50.942Z,21.41
2022-08-21T22:07:27.236Z,21.34
2022-08-21T22:10:05.446Z,21.30
2022-08-21T22:12:49.784Z,21.26
2022-08-21T22:15:26.331Z,21.23
2022-08-21T22:18:00.655Z,21.29
2022-08-21T22:20:33.993Z,21.26
2022-08-21T22:23:05.001Z,21.28
2022-08-21T22:25:38.237Z,21.26
2022-08-21T22:28:10.553Z,21.21
2022-08-21T22:30:46.751Z,21.25
2022-08-21T22:33:25.509Z,21.21
2022-08-21T22:35:57.410Z,21.19
2022-08-21T22:38:27.657Z,21.12
2022-08-21T22:41:12.724Z,21.10
2022-08-21T22:43:58.208Z,21.10
2022-08-21T22:46:31.254Z,21.12
2022-08-21T22:49:20.826Z,21.09
2022-08-21T22:51:57.316Z,21.02
2022-08-21T22:54:34.988Z,21.01
2022-08-21T22:57:07.213Z,21.00
2022-08-21T22:59:41.685Z,20.99
2022-08-21T23:02:33.257Z,20.98
2022-08-21T23:05:04.717Z,21.00
2022-08-21T23:07:44.476Z,20.98
2022-08-21T23:10:30.007Z,20.98
2022-08-21T23:13:09.484Z,20.94
2022-08-21T23:16:06.224Z,20.90
2022-08-21T23:18:36.127Z,20.89
2022-08-21T23:21:15.883Z,20.86
2022-08-21T23:24:03.888Z,20.83
2022-08-21T23:26:56.128Z,20.81
2022-08-21T23:30:04.546Z,20.80
2022-08-21T23:33:02.707Z,20.83
2022-08-21T23:36:09.130Z,20.80
2022-08-21T23:38:35.455Z,20.77
2022-08-21T23:41:18.786Z,20.72
2022-08-21T23:44:09.898Z,20.66
2022-08-21T23:46:57.192Z,20.62
2022-08-21T23:49:43.944Z,20.52
2022-08-21T23:52:33.140Z,20.51
2022-08-21T23:54:59.926Z,20.48
2022-08-21T23:57:51.088Z,20.45
